sensor_id;sensor_type;location;lat;lon;timestamp;P1;durP1;ratioP1;P2;durP2;ratioP2
50757;SDS011;36732;47.980;11.652;2022-11-20T00:01:21;0.93;;;0.80;;
50757;SDS011;36732;47.980;11.652;2022-11-20T00:03:50;1.52;;;0.90;;
50757;SDS011;36732;47.980;11.652;2022-11-20T00:06:18;1.20;;;0.82;;
50757;SDS011;36732;47.980;11.652;2022-11-20T00:08:46;1.20;;;0.90;;
50757;SDS011;36732;47.980;11.652;2022-11-20T00:11:13;1.10;;;0.80;;
50757;SDS011;36732;47.980;11.652;2022-11-20T00:13:42;0.80;;;0.80;;
50757;SDS011;36732;47.980;11.652;2022-11-20T00:16:14;1.30;;;0.90;;
50757;SDS011;36732;47.980;11.652;2022-11-20T00:18:43;2.13;;;0.82;;
50757;SDS011;36732;47.980;11.652;2022-11-20T00:21:11;1.73;;;0.85;;
50757;SDS011;36732;47.980;11.652;2022-11-20T00:23:51;1.48;;;0.70;;
50757;SDS011;36732;47.980;11.652;2022-11-20T00:26:19;1.40;;;0.85;;
50757;SDS011;36732;47.980;11.652;2022-11-20T00:28:56;0.95;;;0.80;;
50757;SDS011;36732;47.980;11.652;2022-11-20T00:31:24;1.27;;;0.93;;
50757;SDS011;36732;47.980;11.652;2022-11-20T00:33:51;1.52;;;0.80;;
50757;SDS011;36732;47.980;11.652;2022-11-20T00:36:18;2.10;;;0.60;;
50757;SDS011;36732;47.980;11.652;2022-11-20T00:38:56;0.88;;;0.80;;
50757;SDS011;36732;47.980;11.652;2022-11-20T00:41:23;1.73;;;1.15;;
50757;SDS011;36732;47.980;11.652;2022-11-20T00:43:54;1.45;;;0.68;;
50757;SDS011;36732;47.980;11.652;2022-11-20T00:46:21;1.38;;;0.80;;
50757;SDS011;36732;47.980;11.652;2022-11-20T00:48:50;1.00;;;0.90;;
50757;SDS011;36732;47.980;11.652;2022-11-20T00:51:16;1.67;;;1.10;;
50757;SDS011;36732;47.980;11.652;2022-11-20T00:53:45;2.50;;;1.08;;
50757;SDS011;36732;47.980;11.652;2022-11-20T00:56:14;0.90;;;0.80;;
50757;SDS011;36732;47.980;11.652;2022-11-20T00:58:43;1.40;;;1.17;;
50757;SDS011;36732;47.980;11.652;2022-11-20T01:01:12;0.85;;;0.85;;
50757;SDS011;36732;47.980;11.652;2022-11-20T01:03:45;1.20;;;1.00;;
50757;SDS011;36732;47.980;11.652;2022-11-20T01:06:23;1.58;;;1.00;;
50757;SDS011;36732;47.980;11.652;2022-11-20T01:08:52;2.95;;;1.10;;
50757;SDS011;36732;47.980;11.652;2022-11-20T01:11:30;1.02;;;0.82;;
50757;SDS011;36732;47.980;11.652;2022-11-20T01:13:59;1.27;;;1.13;;
50757;SDS011;36732;47.980;11.652;2022-11-20T01:18:57;1.40;;;1.02;;
50757;SDS011;36732;47.980;11.652;2022-11-20T01:21:26;1.02;;;0.90;;
50757;SDS011;36732;47.980;11.652;2022-11-20T01:24:01;0.82;;;0.80;;
50757;SDS011;36732;47.980;11.652;2022-11-20T01:26:30;1.20;;;1.00;;
50757;SDS011;36732;47.980;11.652;2022-11-20T01:29:00;1.80;;;1.10;;
50757;SDS011;36732;47.980;11.652;2022-11-20T01:31:29;1.52;;;1.30;;
50757;SDS011;36732;47.980;11.652;2022-11-20T01:33:58;1.30;;;1.05;;
50757;SDS011;36732;47.980;11.652;2022-11-20T01:36:35;1.00;;;0.82;;
50757;SDS011;36732;47.980;11.652;2022-11-20T01:39:04;1.00;;;0.90;;
50757;SDS011;36732;47.980;11.652;2022-11-20T01:41:41;2.15;;;1.50;;
50757;SDS011;36732;47.980;11.652;2022-11-20T01:47:28;1.63;;;1.10;;
50757;SDS011;36732;47.980;11.652;2022-11-20T01:53:00;1.17;;;0.90;;
50757;SDS011;36732;47.980;11.652;2022-11-20T01:55:31;1.05;;;0.95;;
50757;SDS011;36732;47.980;11.652;2022-11-20T01:58:01;2.28;;;1.30;;
50757;SDS011;36732;47.980;11.652;2022-11-20T02:00:27;1.10;;;1.00;;
50757;SDS011;36732;47.980;11.652;2022-11-20T02:02:54;1.00;;;0.90;;
50757;SDS011;36732;47.980;11.652;2022-11-20T02:08:33;0.90;;;0.90;;
50757;SDS011;36732;47.980;11.652;2022-11-20T02:11:00;1.63;;;0.90;;
50757;SDS011;36732;47.980;11.652;2022-11-20T02:13:26;1.00;;;0.77;;
50757;SDS011;36732;47.980;11.652;2022-11-20T02:16:11;1.55;;;1.33;;
50757;SDS011;36732;47.980;11.652;2022-11-20T02:18:51;2.45;;;1.00;;
50757;SDS011;36732;47.980;11.652;2022-11-20T02:24:34;0.77;;;0.70;;
50757;SDS011;36732;47.980;11.652;2022-11-20T02:27:18;1.33;;;1.15;;
50757;SDS011;36732;47.980;11.652;2022-11-20T02:32:22;1.17;;;0.93;;
50757;SDS011;36732;47.980;11.652;2022-11-20T02:34:52;1.13;;;1.02;;
50757;SDS011;36732;47.980;11.652;2022-11-20T02:37:18;1.08;;;0.93;;
50757;SDS011;36732;47.980;11.652;2022-11-20T02:39:51;1.10;;;0.95;;
50757;SDS011;36732;47.980;11.652;2022-11-20T02:42:17;2.67;;;1.30;;
50757;SDS011;36732;47.980;11.652;2022-11-20T02:44:43;3.20;;;1.30;;
50757;SDS011;36732;47.980;11.652;2022-11-20T02:47:09;1.55;;;1.40;;
50757;SDS011;36732;47.980;11.652;2022-11-20T02:49:35;1.50;;;1.10;;
50757;SDS011;36732;47.980;11.652;2022-11-20T02:52:01;2.30;;;1.10;;
50757;SDS011;36732;47.980;11.652;2022-11-20T02:54:27;1.60;;;1.50;;
50757;SDS011;36732;47.980;11.652;2022-11-20T02:56:52;1.20;;;1.10;;
50757;SDS011;36732;47.980;11.652;2022-11-20T02:59:18;2.13;;;1.20;;
50757;SDS011;36732;47.980;11.652;2022-11-20T03:01:44;1.20;;;1.10;;
50757;SDS011;36732;47.980;11.652;2022-11-20T03:04:10;3.53;;;1.20;;
50757;SDS011;36732;47.980;11.652;2022-11-20T03:06:36;3.20;;;1.38;;
50757;SDS011;36732;47.980;11.652;2022-11-20T03:09:01;2.05;;;1.40;;
50757;SDS011;36732;47.980;11.652;2022-11-20T03:11:27;3.83;;;1.55;;
50757;SDS011;36732;47.980;11.652;2022-11-20T03:13:53;1.55;;;1.23;;
50757;SDS011;36732;47.980;11.652;2022-11-20T03:16:20;1.42;;;1.30;;
50757;SDS011;36732;47.980;11.652;2022-11-20T03:18:47;1.40;;;1.13;;
50757;SDS011;36732;47.980;11.652;2022-11-20T03:21:13;1.30;;;1.20;;
50757;SDS011;36732;47.980;11.652;2022-11-20T03:23:40;2.17;;;1.27;;
50757;SDS011;36732;47.980;11.652;2022-11-20T03:26:10;1.80;;;1.30;;
50757;SDS011;36732;47.980;11.652;2022-11-20T03:28:47;1.90;;;1.40;;
50757;SDS011;36732;47.980;11.652;2022-11-20T03:31:16;1.92;;;1.40;;
50757;SDS011;36732;47.980;11.652;2022-11-20T03:33:44;3.08;;;1.77;;
50757;SDS011;36732;47.980;11.652;2022-11-20T03:36:11;2.35;;;1.23;;
50757;SDS011;36732;47.980;11.652;2022-11-20T03:38:39;2.63;;;1.45;;
50757;SDS011;36732;47.980;11.652;2022-11-20T03:41:10;1.27;;;1.15;;
50757;SDS011;36732;47.980;11.652;2022-11-20T03:43:41;1.48;;;1.23;;
50757;SDS011;36732;47.980;11.652;2022-11-20T03:46:07;1.35;;;1.25;;
50757;SDS011;36732;47.980;11.652;2022-11-20T03:48:33;1.60;;;1.50;;
50757;SDS011;36732;47.980;11.652;2022-11-20T03:51:15;1.58;;;1.45;;
50757;SDS011;36732;47.980;11.652;2022-11-20T03:53:49;1.45;;;1.30;;
50757;SDS011;36732;47.980;11.652;2022-11-20T03:56:18;1.60;;;1.50;;
50757;SDS011;36732;47.980;11.652;2022-11-20T03:58:48;2.10;;;1.63;;
50757;SDS011;36732;47.980;11.652;2022-11-20T04:01:14;1.45;;;1.30;;
50757;SDS011;36732;47.980;11.652;2022-11-20T04:03:43;1.45;;;1.35;;
50757;SDS011;36732;47.980;11.652;2022-11-20T04:06:20;1.52;;;1.35;;
50757;SDS011;36732;47.980;11.652;2022-11-20T04:08:54;1.40;;;1.30;;
50757;SDS011;36732;47.980;11.652;2022-11-20T04:11:22;6.40;;;1.95;;
50757;SDS011;36732;47.980;11.652;2022-11-20T04:13:56;2.50;;;1.67;;
50757;SDS011;36732;47.980;11.652;2022-11-20T04:16:25;2.45;;;1.58;;
50757;SDS011;36732;47.980;11.652;2022-11-20T04:18:54;1.40;;;1.30;;
50757;SDS011;36732;47.980;11.652;2022-11-20T04:21:24;2.33;;;1.25;;
50757;SDS011;36732;47.980;11.652;2022-11-20T04:23:51;2.38;;;1.63;;
50757;SDS011;36732;47.980;11.652;2022-11-20T04:26:18;2.17;;;1.30;;
50757;SDS011;36732;47.980;11.652;2022-11-20T04:28:45;1.20;;;1.05;;
50757;SDS011;36732;47.980;11.652;2022-11-20T04:31:12;1.80;;;1.55;;
50757;SDS011;36732;47.980;11.652;2022-11-20T04:33:42;1.63;;;1.52;;
50757;SDS011;36732;47.980;11.652;2022-11-20T04:36:15;1.98;;;1.73;;
50757;SDS011;36732;47.980;11.652;2022-11-20T04:38:49;4.05;;;3.10;;
50757;SDS011;36732;47.980;11.652;2022-11-20T04:41:20;3.25;;;2.20;;
50757;SDS011;36732;47.980;11.652;2022-11-20T04:43:48;2.60;;;2.22;;
50757;SDS011;36732;47.980;11.652;2022-11-20T04:46:16;2.55;;;1.85;;
50757;SDS011;36732;47.980;11.652;2022-11-20T04:48:43;1.80;;;1.70;;
50757;SDS011;36732;47.980;11.652;2022-11-20T04:51:09;1.67;;;1.58;;
50757;SDS011;36732;47.980;11.652;2022-11-20T04:53:35;1.92;;;1.40;;
50757;SDS011;36732;47.980;11.652;2022-11-20T04:56:01;1.67;;;1.35;;
50757;SDS011;36732;47.980;11.652;2022-11-20T04:58:33;1.77;;;1.60;;
50757;SDS011;36732;47.980;11.652;2022-11-20T05:01:03;3.33;;;1.63;;
50757;SDS011;36732;47.980;11.652;2022-11-20T05:03:31;1.73;;;1.38;;
50757;SDS011;36732;47.980;11.652;2022-11-20T05:06:04;2.70;;;1.73;;
50757;SDS011;36732;47.980;11.652;2022-11-20T05:08:31;1.45;;;1.35;;
50757;SDS011;36732;47.980;11.652;2022-11-20T05:11:01;2.53;;;1.98;;
50757;SDS011;36732;47.980;11.652;2022-11-20T05:13:32;1.92;;;1.73;;
50757;SDS011;36732;47.980;11.652;2022-11-20T05:16:04;2.28;;;1.80;;
50757;SDS011;36732;47.980;11.652;2022-11-20T05:18:35;2.08;;;1.75;;
50757;SDS011;36732;47.980;11.652;2022-11-20T05:21:02;2.85;;;2.20;;
50757;SDS011;36732;47.980;11.652;2022-11-20T05:23:29;3.45;;;2.80;;
50757;SDS011;36732;47.980;11.652;2022-11-20T05:25:56;3.80;;;2.28;;
50757;SDS011;36732;47.980;11.652;2022-11-20T05:28:23;5.00;;;4.05;;
50757;SDS011;36732;47.980;11.652;2022-11-20T05:30:50;5.75;;;3.95;;
50757;SDS011;36732;47.980;11.652;2022-11-20T05:33:16;3.97;;;3.08;;
50757;SDS011;36732;47.980;11.652;2022-11-20T05:35:43;2.35;;;2.10;;
50757;SDS011;36732;47.980;11.652;2022-11-20T05:38:09;2.35;;;2.10;;
50757;SDS011;36732;47.980;11.652;2022-11-20T05:40:35;2.45;;;2.25;;
50757;SDS011;36732;47.980;11.652;2022-11-20T05:43:01;2.10;;;1.90;;
50757;SDS011;36732;47.980;11.652;2022-11-20T05:45:27;2.63;;;1.83;;
50757;SDS011;36732;47.980;11.652;2022-11-20T05:47:53;2.35;;;1.83;;
50757;SDS011;36732;47.980;11.652;2022-11-20T05:50:23;2.50;;;2.10;;
50757;SDS011;36732;47.980;11.652;2022-11-20T05:52:48;2.20;;;1.90;;
50757;SDS011;36732;47.980;11.652;2022-11-20T05:55:15;2.20;;;2.00;;
50757;SDS011;36732;47.980;11.652;2022-11-20T05:57:41;1.83;;;1.73;;
50757;SDS011;36732;47.980;11.652;2022-11-20T06:00:07;2.38;;;2.17;;
50757;SDS011;36732;47.980;11.652;2022-11-20T06:02:34;5.53;;;2.25;;
50757;SDS011;36732;47.980;11.652;2022-11-20T06:05:01;2.65;;;2.05;;
50757;SDS011;36732;47.980;11.652;2022-11-20T06:07:27;2.00;;;1.90;;
50757;SDS011;36732;47.980;11.652;2022-11-20T06:09:52;2.30;;;2.10;;
50757;SDS011;36732;47.980;11.652;2022-11-20T06:12:18;3.50;;;2.60;;
50757;SDS011;36732;47.980;11.652;2022-11-20T06:14:44;4.30;;;3.28;;
50757;SDS011;36732;47.980;11.652;2022-11-20T06:17:10;2.95;;;2.63;;
50757;SDS011;36732;47.980;11.652;2022-11-20T06:19:35;2.90;;;2.33;;
50757;SDS011;36732;47.980;11.652;2022-11-20T06:22:01;3.30;;;2.58;;
50757;SDS011;36732;47.980;11.652;2022-11-20T06:24:27;2.33;;;2.13;;
50757;SDS011;36732;47.980;11.652;2022-11-20T06:26:52;2.20;;;1.80;;
50757;SDS011;36732;47.980;11.652;2022-11-20T06:29:18;2.45;;;1.70;;
50757;SDS011;36732;47.980;11.652;2022-11-20T06:31:44;4.70;;;1.90;;
50757;SDS011;36732;47.980;11.652;2022-11-20T06:34:09;2.15;;;1.75;;
50757;SDS011;36732;47.980;11.652;2022-11-20T06:36:35;2.08;;;1.63;;
50757;SDS011;36732;47.980;11.652;2022-11-20T06:39:01;2.65;;;1.52;;
50757;SDS011;36732;47.980;11.652;2022-11-20T06:41:28;2.15;;;1.90;;
50757;SDS011;36732;47.980;11.652;2022-11-20T06:43:54;2.20;;;1.98;;
50757;SDS011;36732;47.980;11.652;2022-11-20T06:46:20;2.08;;;1.80;;
50757;SDS011;36732;47.980;11.652;2022-11-20T06:48:47;2.00;;;1.80;;
50757;SDS011;36732;47.980;11.652;2022-11-20T06:51:14;2.33;;;1.80;;
50757;SDS011;36732;47.980;11.652;2022-11-20T06:53:40;2.28;;;2.00;;
50757;SDS011;36732;47.980;11.652;2022-11-20T06:56:06;2.25;;;2.03;;
50757;SDS011;36732;47.980;11.652;2022-11-20T06:58:33;2.63;;;2.38;;
50757;SDS011;36732;47.980;11.652;2022-11-20T07:01:01;3.85;;;3.13;;
50757;SDS011;36732;47.980;11.652;2022-11-20T07:03:35;3.85;;;2.90;;
50757;SDS011;36732;47.980;11.652;2022-11-20T07:06:02;3.95;;;2.50;;
50757;SDS011;36732;47.980;11.652;2022-11-20T07:08:28;3.17;;;2.28;;
50757;SDS011;36732;47.980;11.652;2022-11-20T07:10:58;1.92;;;1.83;;
50757;SDS011;36732;47.980;11.652;2022-11-20T07:13:25;3.10;;;2.65;;
50757;SDS011;36732;47.980;11.652;2022-11-20T07:15:52;2.15;;;1.70;;
50757;SDS011;36732;47.980;11.652;2022-11-20T07:18:18;2.78;;;2.00;;
50757;SDS011;36732;47.980;11.652;2022-11-20T07:20:44;2.40;;;2.03;;
50757;SDS011;36732;47.980;11.652;2022-11-20T07:23:10;2.00;;;1.83;;
50757;SDS011;36732;47.980;11.652;2022-11-20T07:25:36;1.80;;;1.70;;
50757;SDS011;36732;47.980;11.652;2022-11-20T07:28:01;2.20;;;1.85;;
50757;SDS011;36732;47.980;11.652;2022-11-20T07:30:28;3.30;;;2.00;;
50757;SDS011;36732;47.980;11.652;2022-11-20T07:32:55;1.88;;;1.75;;
50757;SDS011;36732;47.980;11.652;2022-11-20T07:35:22;1.88;;;1.73;;
50757;SDS011;36732;47.980;11.652;2022-11-20T07:37:49;2.17;;;1.98;;
50757;SDS011;36732;47.980;11.652;2022-11-20T07:40:15;2.50;;;2.15;;
50757;SDS011;36732;47.980;11.652;2022-11-20T07:42:51;2.17;;;1.98;;
50757;SDS011;36732;47.980;11.652;2022-11-20T07:45:21;2.15;;;1.98;;
50757;SDS011;36732;47.980;11.652;2022-11-20T07:47:48;2.35;;;2.03;;
50757;SDS011;36732;47.980;11.652;2022-11-20T07:50:14;2.38;;;1.75;;
50757;SDS011;36732;47.980;11.652;2022-11-20T07:52:40;1.90;;;1.80;;
50757;SDS011;36732;47.980;11.652;2022-11-20T07:55:07;2.58;;;1.83;;
50757;SDS011;36732;47.980;11.652;2022-11-20T07:57:34;1.88;;;1.52;;
50757;SDS011;36732;47.980;11.652;2022-11-20T08:00:00;1.65;;;1.35;;
50757;SDS011;36732;47.980;11.652;2022-11-20T08:02:25;2.55;;;2.25;;
50757;SDS011;36732;47.980;11.652;2022-11-20T08:04:51;3.83;;;3.42;;
50757;SDS011;36732;47.980;11.652;2022-11-20T08:07:17;2.38;;;2.17;;
50757;SDS011;36732;47.980;11.652;2022-11-20T08:09:43;3.13;;;2.00;;
50757;SDS011;36732;47.980;11.652;2022-11-20T08:12:09;3.13;;;2.33;;
50757;SDS011;36732;47.980;11.652;2022-11-20T08:15:03;2.65;;;1.48;;
50757;SDS011;36732;47.980;11.652;2022-11-20T08:17:30;1.77;;;1.40;;
50757;SDS011;36732;47.980;11.652;2022-11-20T08:19:56;1.80;;;1.52;;
50757;SDS011;36732;47.980;11.652;2022-11-20T08:22:22;1.98;;;1.50;;
50757;SDS011;36732;47.980;11.652;2022-11-20T08:24:48;1.50;;;1.40;;
50757;SDS011;36732;47.980;11.652;2022-11-20T08:27:14;2.92;;;1.48;;
50757;SDS011;36732;47.980;11.652;2022-11-20T08:29:39;1.55;;;1.42;;
50757;SDS011;36732;47.980;11.652;2022-11-20T08:32:05;1.63;;;1.25;;
50757;SDS011;36732;47.980;11.652;2022-11-20T08:34:31;1.77;;;1.23;;
50757;SDS011;36732;47.980;11.652;2022-11-20T08:36:57;1.40;;;1.30;;
50757;SDS011;36732;47.980;11.652;2022-11-20T08:39:22;1.27;;;1.08;;
50757;SDS011;36732;47.980;11.652;2022-11-20T08:41:48;1.65;;;1.42;;
50757;SDS011;36732;47.980;11.652;2022-11-20T08:44:14;1.95;;;1.48;;
50757;SDS011;36732;47.980;11.652;2022-11-20T08:46:40;1.83;;;1.45;;
50757;SDS011;36732;47.980;11.652;2022-11-20T08:49:09;2.17;;;1.48;;
50757;SDS011;36732;47.980;11.652;2022-11-20T08:51:37;1.73;;;1.63;;
50757;SDS011;36732;47.980;11.652;2022-11-20T08:54:04;1.40;;;1.27;;
50757;SDS011;36732;47.980;11.652;2022-11-20T08:56:31;1.80;;;1.35;;
50757;SDS011;36732;47.980;11.652;2022-11-20T08:58:56;1.77;;;1.30;;
50757;SDS011;36732;47.980;11.652;2022-11-20T09:01:24;1.27;;;1.17;;
50757;SDS011;36732;47.980;11.652;2022-11-20T09:03:50;1.90;;;1.30;;
50757;SDS011;36732;47.980;11.652;2022-11-20T09:06:16;1.20;;;1.10;;
50757;SDS011;36732;47.980;11.652;2022-11-20T09:08:42;1.33;;;1.08;;
50757;SDS011;36732;47.980;11.652;2022-11-20T09:11:09;1.20;;;1.10;;
50757;SDS011;36732;47.980;11.652;2022-11-20T09:13:35;1.48;;;1.30;;
50757;SDS011;36732;47.980;11.652;2022-11-20T09:16:05;1.20;;;1.10;;
50757;SDS011;36732;47.980;11.652;2022-11-20T09:18:34;1.38;;;1.13;;
50757;SDS011;36732;47.980;11.652;2022-11-20T09:21:03;2.25;;;1.80;;
50757;SDS011;36732;47.980;11.652;2022-11-20T09:26:11;2.88;;;1.40;;
50757;SDS011;36732;47.980;11.652;2022-11-20T09:28:38;4.22;;;1.70;;
50757;SDS011;36732;47.980;11.652;2022-11-20T09:31:08;1.55;;;1.40;;
50757;SDS011;36732;47.980;11.652;2022-11-20T09:33:56;1.15;;;0.73;;
50757;SDS011;36732;47.980;11.652;2022-11-20T09:36:22;1.70;;;1.00;;
50757;SDS011;36732;47.980;11.652;2022-11-20T09:38:48;1.27;;;0.93;;
50757;SDS011;36732;47.980;11.652;2022-11-20T09:41:33;1.13;;;0.88;;
50757;SDS011;36732;47.980;11.652;2022-11-20T09:49:53;0.65;;;0.65;;
50757;SDS011;36732;47.980;11.652;2022-11-20T09:56:02;0.73;;;0.55;;
50757;SDS011;36732;47.980;11.652;2022-11-20T10:01:10;0.90;;;0.70;;
50757;SDS011;36732;47.980;11.652;2022-11-20T10:06:18;1.63;;;0.70;;
50757;SDS011;36732;47.980;11.652;2022-11-20T10:08:55;0.60;;;0.60;;
50757;SDS011;36732;47.980;11.652;2022-11-20T10:12:05;1.98;;;0.68;;
50757;SDS011;36732;47.980;11.652;2022-11-20T10:26:03;0.80;;;0.80;;
50757;SDS011;36732;47.980;11.652;2022-11-20T10:31:40;0.90;;;0.70;;
50757;SDS011;36732;47.980;11.652;2022-11-20T10:34:34;0.60;;;0.60;;
50757;SDS011;36732;47.980;11.652;2022-11-20T10:37:15;1.02;;;0.60;;
50757;SDS011;36732;47.980;11.652;2022-11-20T10:42:34;0.73;;;0.52;;
50757;SDS011;36732;47.980;11.652;2022-11-20T10:48:21;1.55;;;0.70;;
50757;SDS011;36732;47.980;11.652;2022-11-20T10:54:12;1.23;;;0.70;;
50757;SDS011;36732;47.980;11.652;2022-11-20T10:57:00;0.60;;;0.60;;
50757;SDS011;36732;47.980;11.652;2022-11-20T11:02:37;0.63;;;0.52;;
50757;SDS011;36732;47.980;11.652;2022-11-20T11:05:11;1.23;;;0.40;;
50757;SDS011;36732;47.980;11.652;2022-11-20T11:07:45;0.70;;;0.68;;
50757;SDS011;36732;47.980;11.652;2022-11-20T11:10:18;0.47;;;0.47;;
50757;SDS011;36732;47.980;11.652;2022-11-20T11:13:01;0.70;;;0.40;;
50757;SDS011;36732;47.980;11.652;2022-11-20T11:15:28;3.30;;;0.98;;
50757;SDS011;36732;47.980;11.652;2022-11-20T11:18:02;0.40;;;0.40;;
50757;SDS011;36732;47.980;11.652;2022-11-20T11:20:28;1.05;;;0.63;;
50757;SDS011;36732;47.980;11.652;2022-11-20T11:22:57;0.47;;;0.47;;
50757;SDS011;36732;47.980;11.652;2022-11-20T11:25:31;0.93;;;0.60;;
50757;SDS011;36732;47.980;11.652;2022-11-20T11:28:00;0.65;;;0.52;;
50757;SDS011;36732;47.980;11.652;2022-11-20T11:30:44;0.70;;;0.60;;
50757;SDS011;36732;47.980;11.652;2022-11-20T11:35:47;1.45;;;0.70;;
50757;SDS011;36732;47.980;11.652;2022-11-20T11:38:21;1.95;;;0.90;;
50757;SDS011;36732;47.980;11.652;2022-11-20T11:40:54;0.50;;;0.50;;
50757;SDS011;36732;47.980;11.652;2022-11-20T11:43:23;1.60;;;0.70;;
50757;SDS011;36732;47.980;11.652;2022-11-20T11:51:56;1.10;;;0.73;;
50757;SDS011;36732;47.980;11.652;2022-11-20T11:54:41;0.98;;;0.60;;
50757;SDS011;36732;47.980;11.652;2022-11-20T12:00:10;1.77;;;0.80;;
50757;SDS011;36732;47.980;11.652;2022-11-20T12:05:18;0.60;;;0.52;;
50757;SDS011;36732;47.980;11.652;2022-11-20T12:08:06;0.77;;;0.50;;
50757;SDS011;36732;47.980;11.652;2022-11-20T12:13:50;1.05;;;0.60;;
50757;SDS011;36732;47.980;11.652;2022-11-20T12:16:26;0.50;;;0.40;;
50757;SDS011;36732;47.980;11.652;2022-11-20T12:18:53;0.88;;;0.65;;
50757;SDS011;36732;47.980;11.652;2022-11-20T12:21:20;1.08;;;0.50;;
50757;SDS011;36732;47.980;11.652;2022-11-20T12:36:07;1.38;;;0.93;;
50757;SDS011;36732;47.980;11.652;2022-11-20T12:56:50;2.28;;;1.63;;
50757;SDS011;36732;47.980;11.652;2022-11-20T13:07:47;4.30;;;1.90;;
50757;SDS011;36732;47.980;11.652;2022-11-20T13:10:21;1.58;;;1.15;;
50757;SDS011;36732;47.980;11.652;2022-11-20T13:15:53;0.90;;;0.90;;
50757;SDS011;36732;47.980;11.652;2022-11-20T13:18:24;1.73;;;0.90;;
50757;SDS011;36732;47.980;11.652;2022-11-20T13:20:51;1.27;;;1.00;;
50757;SDS011;36732;47.980;11.652;2022-11-20T13:23:26;1.20;;;0.90;;
50757;SDS011;36732;47.980;11.652;2022-11-20T13:26:03;1.40;;;0.90;;
50757;SDS011;36732;47.980;11.652;2022-11-20T13:28:39;1.50;;;0.85;;
50757;SDS011;36732;47.980;11.652;2022-11-20T13:31:09;0.60;;;0.50;;
50757;SDS011;36732;47.980;11.652;2022-11-20T13:33:55;0.70;;;0.68;;
50757;SDS011;36732;47.980;11.652;2022-11-20T13:36:23;0.60;;;0.60;;
50757;SDS011;36732;47.980;11.652;2022-11-20T13:38:52;1.15;;;0.60;;
50757;SDS011;36732;47.980;11.652;2022-11-20T13:41:38;1.35;;;0.98;;
50757;SDS011;36732;47.980;11.652;2022-11-20T13:44:08;0.95;;;0.80;;
50757;SDS011;36732;47.980;11.652;2022-11-20T13:46:46;0.63;;;0.60;;
50757;SDS011;36732;47.980;11.652;2022-11-20T13:49:25;0.70;;;0.40;;
50757;SDS011;36732;47.980;11.652;2022-11-20T13:57:48;3.85;;;2.33;;
50757;SDS011;36732;47.980;11.652;2022-11-20T14:00:23;1.60;;;1.20;;
50757;SDS011;36732;47.980;11.652;2022-11-20T14:05:45;1.42;;;0.60;;
50757;SDS011;36732;47.980;11.652;2022-11-20T14:08:25;0.82;;;0.80;;
50757;SDS011;36732;47.980;11.652;2022-11-20T14:14:10;1.75;;;0.80;;
50757;SDS011;36732;47.980;11.652;2022-11-20T14:16:42;0.80;;;0.80;;
50757;SDS011;36732;47.980;11.652;2022-11-20T14:22:09;0.90;;;0.68;;
50757;SDS011;36732;47.980;11.652;2022-11-20T14:24:42;0.73;;;0.73;;
50757;SDS011;36732;47.980;11.652;2022-11-20T14:27:15;1.40;;;0.80;;
50757;SDS011;36732;47.980;11.652;2022-11-20T14:29:44;0.70;;;0.70;;
50757;SDS011;36732;47.980;11.652;2022-11-20T14:32:14;2.38;;;1.90;;
50757;SDS011;36732;47.980;11.652;2022-11-20T14:34:45;3.08;;;0.88;;
50757;SDS011;36732;47.980;11.652;2022-11-20T14:37:17;0.80;;;0.60;;
50757;SDS011;36732;47.980;11.652;2022-11-20T14:39:53;0.60;;;0.60;;
50757;SDS011;36732;47.980;11.652;2022-11-20T14:42:23;0.52;;;0.50;;
50757;SDS011;36732;47.980;11.652;2022-11-20T14:44:51;1.10;;;0.90;;
50757;SDS011;36732;47.980;11.652;2022-11-20T14:47:27;3.00;;;2.35;;
50757;SDS011;36732;47.980;11.652;2022-11-20T14:49:55;1.40;;;1.10;;
50757;SDS011;36732;47.980;11.652;2022-11-20T14:52:24;1.17;;;0.90;;
50757;SDS011;36732;47.980;11.652;2022-11-20T14:54:56;2.30;;;1.30;;
50757;SDS011;36732;47.980;11.652;2022-11-20T14:57:25;0.80;;;0.70;;
50757;SDS011;36732;47.980;11.652;2022-11-20T15:02:46;2.00;;;0.90;;
50757;SDS011;36732;47.980;11.652;2022-11-20T15:05:15;2.17;;;0.73;;
50757;SDS011;36732;47.980;11.652;2022-11-20T15:07:47;0.70;;;0.50;;
50757;SDS011;36732;47.980;11.652;2022-11-20T15:10:26;0.65;;;0.60;;
50757;SDS011;36732;47.980;11.652;2022-11-20T15:12:59;0.73;;;0.65;;
50757;SDS011;36732;47.980;11.652;2022-11-20T15:18:16;0.50;;;0.50;;
50757;SDS011;36732;47.980;11.652;2022-11-20T15:20:44;0.40;;;0.40;;
50757;SDS011;36732;47.980;11.652;2022-11-20T15:23:11;0.93;;;0.50;;
50757;SDS011;36732;47.980;11.652;2022-11-20T15:25:40;1.73;;;1.10;;
50757;SDS011;36732;47.980;11.652;2022-11-20T15:28:12;1.25;;;0.70;;
50757;SDS011;36732;47.980;11.652;2022-11-20T15:30:47;1.58;;;1.08;;
50757;SDS011;36732;47.980;11.652;2022-11-20T15:33:14;1.63;;;0.85;;
50757;SDS011;36732;47.980;11.652;2022-11-20T15:35:41;1.85;;;0.70;;
50757;SDS011;36732;47.980;11.652;2022-11-20T15:38:08;1.08;;;0.55;;
50757;SDS011;36732;47.980;11.652;2022-11-20T15:40:33;1.02;;;0.70;;
50757;SDS011;36732;47.980;11.652;2022-11-20T15:42:59;0.50;;;0.50;;
50757;SDS011;36732;47.980;11.652;2022-11-20T15:45:29;0.63;;;0.50;;
50757;SDS011;36732;47.980;11.652;2022-11-20T15:48:00;1.30;;;1.00;;
50757;SDS011;36732;47.980;11.652;2022-11-20T15:50:29;0.65;;;0.60;;
50757;SDS011;36732;47.980;11.652;2022-11-20T15:53:07;1.50;;;0.40;;
50757;SDS011;36732;47.980;11.652;2022-11-20T15:55:35;1.83;;;0.60;;
50757;SDS011;36732;47.980;11.652;2022-11-20T15:58:00;0.98;;;0.50;;
50757;SDS011;36732;47.980;11.652;2022-11-20T16:00:26;0.68;;;0.60;;
50757;SDS011;36732;47.980;11.652;2022-11-20T16:02:52;0.52;;;0.45;;
50757;SDS011;36732;47.980;11.652;2022-11-20T16:05:18;0.85;;;0.70;;
50757;SDS011;36732;47.980;11.652;2022-11-20T16:07:43;1.63;;;1.27;;
50757;SDS011;36732;47.980;11.652;2022-11-20T16:10:09;4.43;;;2.47;;
50757;SDS011;36732;47.980;11.652;2022-11-20T16:12:35;2.92;;;1.90;;
50757;SDS011;36732;47.980;11.652;2022-11-20T16:15:19;1.13;;;1.02;;
50757;SDS011;36732;47.980;11.652;2022-11-20T16:18:03;0.60;;;0.60;;
50757;SDS011;36732;47.980;11.652;2022-11-20T16:20:29;2.20;;;1.10;;
50757;SDS011;36732;47.980;11.652;2022-11-20T16:22:55;0.88;;;0.60;;
50757;SDS011;36732;47.980;11.652;2022-11-20T16:25:20;2.55;;;0.60;;
50757;SDS011;36732;47.980;11.652;2022-11-20T16:27:46;0.82;;;0.70;;
50757;SDS011;36732;47.980;11.652;2022-11-20T16:30:12;1.15;;;0.70;;
50757;SDS011;36732;47.980;11.652;2022-11-20T16:32:38;1.67;;;1.17;;
50757;SDS011;36732;47.980;11.652;2022-11-20T16:35:04;1.20;;;0.90;;
50757;SDS011;36732;47.980;11.652;2022-11-20T16:37:32;1.52;;;0.80;;
50757;SDS011;36732;47.980;11.652;2022-11-20T16:39:58;0.88;;;0.70;;
50757;SDS011;36732;47.980;11.652;2022-11-20T16:42:23;0.85;;;0.60;;
50757;SDS011;36732;47.980;11.652;2022-11-20T16:44:49;0.52;;;0.47;;
50757;SDS011;36732;47.980;11.652;2022-11-20T16:47:15;1.48;;;0.45;;
50757;SDS011;36732;47.980;11.652;2022-11-20T16:49:41;1.20;;;0.70;;
50757;SDS011;36732;47.980;11.652;2022-11-20T16:52:07;0.50;;;0.50;;
50757;SDS011;36732;47.980;11.652;2022-11-20T16:54:33;1.15;;;0.70;;
50757;SDS011;36732;47.980;11.652;2022-11-20T16:56:58;1.58;;;1.00;;
50757;SDS011;36732;47.980;11.652;2022-11-20T16:59:26;3.03;;;1.05;;
50757;SDS011;36732;47.980;11.652;2022-11-20T17:01:52;2.05;;;1.70;;
50757;SDS011;36732;47.980;11.652;2022-11-20T17:04:18;2.83;;;1.52;;
50757;SDS011;36732;47.980;11.652;2022-11-20T17:06:44;2.15;;;1.63;;
50757;SDS011;36732;47.980;11.652;2022-11-20T17:09:10;4.05;;;2.05;;